Time,TemperatureF,DewpointF,PressureIn,WindDirection,WindDirectionDegrees,WindSpeedMPH,WindSpeedGustMPH,Humidity,HourlyPrecipIn,Conditions,Clouds,dailyrainin,SoftwareType,DateUTC
2013-09-09 00:03:00,70.3,49.1,29.60,WNW,297,0.0,0.0,47,0.00,,,0.00,Wunderground v.1.15,2013-09-09 06:03:00,
2013-09-09 00:08:00,70.4,49.2,29.60,WNW,297,0.0,0.0,47,0.00,,,0.00,Wunderground v.1.15,2013-09-09 06:08:00,
2013-09-09 00:13:00,70.3,49.1,29.60,WNW,297,0.0,0.0,47,0.00,,,0.00,Wunderground v.1.15,2013-09-09 06:13:00,
2013-09-09 00:18:00,69.9,49.9,29.61,WNW,297,0.0,0.0,49,0.00,,,0.00,Wunderground v.1.15,2013-09-09 06:18:00,
2013-09-09 00:24:00,69.6,50.1,29.61,WNW,297,0.0,0.0,50,0.00,,,0.00,Wunderground v.1.15,2013-09-09 06:24:00,
2013-09-09 00:30:00,69.4,49.9,29.61,WNW,297,0.0,0.0,50,0.00,,,0.00,Wunderground v.1.15,2013-09-09 06:30:00,
2013-09-09 00:35:00,69.4,49.9,29.61,WNW,297,0.0,1.0,50,0.00,,,0.00,Wunderground v.1.15,2013-09-09 06:35:00,
2013-09-09 00:40:00,68.9,49.5,29.61,WNW,297,3.0,3.0,50,0.00,,,0.00,Wunderground v.1.15,2013-09-09 06:40:00,
2013-09-09 00:45:00,68.8,49.4,29.61,WNW,297,3.0,3.0,50,0.00,,,0.00,Wunderground v.1.15,2013-09-09 06:45:00,
2013-09-09 00:51:00,68.1,50.8,29.61,WNW,297,0.0,2.0,54,0.00,,,0.00,Wunderground v.1.15,2013-09-09 06:51:00,
2013-09-09 00:57:00,67.4,50.7,29.61,WNW,297,0.0,2.0,55,0.00,,,0.00,Wunderground v.1.15,2013-09-09 06:57:00,
2013-09-09 01:02:00,67.3,51.1,29.61,WNW,297,0.0,1.0,56,0.00,,,0.00,Wunderground v.1.15,2013-09-09 07:02:00,
2013-09-09 01:07:00,66.9,50.2,29.63,WNW,296,1.0,3.0,55,0.00,,,0.00,Wunderground v.1.15,2013-09-09 07:07:00,
2013-09-09 01:12:00,66.9,51.2,29.63,WNW,295,1.0,1.0,57,0.00,,,0.00,Wunderground v.1.15,2013-09-09 07:12:00,
2013-09-09 01:17:00,66.6,50.9,29.63,WNW,294,4.0,4.0,57,0.00,,,0.00,Wunderground v.1.15,2013-09-09 07:17:00,
2013-09-09 01:23:00,66.8,51.1,29.63,WNW,292,2.0,2.0,57,0.00,,,0.00,Wunderground v.1.15,2013-09-09 07:23:00,
2013-09-09 01:28:00,66.6,50.9,29.63,WNW,290,2.0,2.0,57,0.00,,,0.00,Wunderground v.1.15,2013-09-09 07:28:00,
2013-09-09 01:33:00,66.6,50.4,29.63,WNW,285,3.0,5.0,56,0.00,,,0.00,Wunderground v.1.15,2013-09-09 07:33:00,
2013-09-09 01:38:00,66.4,50.2,29.63,WNW,283,2.0,5.0,56,0.00,,,0.00,Wunderground v.1.15,2013-09-09 07:38:00,
2013-09-09 01:43:00,66.1,50.4,29.63,West,279,4.0,7.0,57,0.00,,,0.00,Wunderground v.1.15,2013-09-09 07:43:00,
2013-09-09 01:48:00,66.3,50.6,29.63,West,279,0.0,7.0,57,0.00,,,0.00,Wunderground v.1.15,2013-09-09 07:48:00,
2013-09-09 01:53:00,66.1,50.9,29.63,West,277,4.0,5.0,58,0.00,,,0.00,Wunderground v.1.15,2013-09-09 07:53:00,
2013-09-09 01:59:00,66.3,50.6,29.63,West,272,3.0,5.0,57,0.00,,,0.00,Wunderground v.1.15,2013-09-09 07:59:00,
2013-09-09 02:04:00,66.4,50.2,29.63,West,271,3.0,5.0,56,0.00,,,0.00,Wunderground v.1.15,2013-09-09 08:04:00,
2013-09-09 02:09:00,66.3,50.1,29.63,West,271,2.0,5.0,56,0.00,,,0.00,Wunderground v.1.15,2013-09-09 08:09:00,
2013-09-09 02:14:00,66.3,50.6,29.63,West,271,4.0,4.0,57,0.00,,,0.00,Wunderground v.1.15,2013-09-09 08:14:00,
2013-09-09 02:19:00,66.1,49.9,29.64,West,271,0.0,5.0,56,0.00,,,0.00,Wunderground v.1.15,2013-09-09 08:19:00,
2013-09-09 02:24:00,65.6,50.4,29.64,West,271,0.0,3.0,58,0.00,,,0.00,Wunderground v.1.15,2013-09-09 08:24:00,
2013-09-09 02:29:00,65.3,50.1,29.64,West,271,1.0,4.0,58,0.00,,,0.00,Wunderground v.1.15,2013-09-09 08:29:00,
2013-09-09 02:34:00,65.3,50.1,29.64,West,271,1.0,2.0,58,0.00,,,0.00,Wunderground v.1.15,2013-09-09 08:34:00,
2013-09-09 02:39:00,65.3,50.1,29.64,West,271,0.0,3.0,58,0.00,,,0.00,Wunderground v.1.15,2013-09-09 08:39:00,
2013-09-09 02:44:00,65.6,50.0,29.64,West,271,3.0,4.0,57,0.00,,,0.00,Wunderground v.1.15,2013-09-09 08:44:00,
2013-09-09 02:49:00,66.0,50.3,29.64,West,271,0.0,5.0,57,0.00,,,0.00,Wunderground v.1.15,2013-09-09 08:49:00,
2013-09-09 02:54:00,65.8,50.1,29.64,West,271,0.0,1.0,57,0.00,,,0.00,Wunderground v.1.15,2013-09-09 08:54:00,
2013-09-09 02:59:00,65.6,50.0,29.64,West,271,0.0,1.0,57,0.00,,,0.00,Wunderground v.1.15,2013-09-09 08:59:00,
2013-09-09 03:04:00,65.5,50.3,29.65,West,271,1.0,1.0,58,0.00,,,0.00,Wunderground v.1.15,2013-09-09 09:04:00,
2013-09-09 03:09:00,65.2,50.5,29.65,West,271,0.0,1.0,59,0.00,,,0.00,Wunderground v.1.15,2013-09-09 09:09:00,
2013-09-09 03:14:00,65.0,50.3,29.65,West,271,1.0,2.0,59,0.00,,,0.00,Wunderground v.1.15,2013-09-09 09:14:00,
2013-09-09 03:19:00,64.5,50.3,29.67,West,271,1.0,3.0,60,0.00,,,0.00,Wunderground v.1.15,2013-09-09 09:19:00,
2013-09-09 03:24:00,64.3,49.7,29.67,West,271,0.0,1.0,59,0.00,,,0.00,Wunderground v.1.15,2013-09-09 09:24:00,
2013-09-09 03:29:00,63.9,50.2,29.67,West,271,0.0,1.0,61,0.00,,,0.00,Wunderground v.1.15,2013-09-09 09:29:00,
2013-09-09 03:34:00,64.0,49.8,29.67,West,271,0.0,1.0,60,0.00,,,0.00,Wunderground v.1.15,2013-09-09 09:34:00,
2013-09-09 03:39:00,63.4,49.7,29.67,West,271,0.0,1.0,61,0.00,,,0.00,Wunderground v.1.15,2013-09-09 09:39:00,
2013-09-09 03:44:00,63.1,49.9,29.67,West,271,0.0,0.0,62,0.00,,,0.00,Wunderground v.1.15,2013-09-09 09:44:00,
2013-09-09 03:49:00,62.3,50.0,29.68,West,271,2.0,2.0,64,0.00,,,0.00,Wunderground v.1.15,2013-09-09 09:49:00,
2013-09-09 03:54:00,62.0,50.1,29.68,West,271,0.0,2.0,65,0.00,,,0.00,Wunderground v.1.15,2013-09-09 09:54:00,
2013-09-09 03:59:00,62.1,50.2,29.68,West,271,0.0,2.0,65,0.00,,,0.00,Wunderground v.1.15,2013-09-09 09:59:00,
2013-09-09 04:04:00,62.3,50.0,29.68,West,271,0.0,0.0,64,0.00,,,0.00,Wunderground v.1.15,2013-09-09 10:04:00,
2013-09-09 04:09:00,62.7,49.9,29.68,West,271,2.0,2.0,63,0.00,,,0.00,Wunderground v.1.15,2013-09-09 10:09:00,
2013-09-09 04:14:00,63.2,50.0,29.68,West,271,0.0,1.0,62,0.00,,,0.00,Wunderground v.1.15,2013-09-09 10:14:00,
2013-09-09 04:19:00,63.2,49.5,29.68,West,271,1.0,4.0,61,0.00,,,0.00,Wunderground v.1.15,2013-09-09 10:19:00,
2013-09-09 04:24:00,62.9,49.7,29.68,West,271,0.0,4.0,62,0.00,,,0.00,Wunderground v.1.15,2013-09-09 10:24:00,
2013-09-09 04:29:00,62.6,50.2,29.68,West,271,0.0,4.0,64,0.00,,,0.00,Wunderground v.1.15,2013-09-09 10:29:00,
2013-09-09 04:34:00,62.3,50.4,29.68,West,271,0.0,1.0,65,0.00,,,0.00,Wunderground v.1.15,2013-09-09 10:34:00,
2013-09-09 04:39:00,62.0,50.1,29.68,West,271,2.0,3.0,65,0.00,,,0.00,Wunderground v.1.15,2013-09-09 10:39:00,
2013-09-09 04:44:00,61.6,50.1,29.68,West,271,2.0,3.0,66,0.00,,,0.00,Wunderground v.1.15,2013-09-09 10:44:00,
2013-09-09 04:49:00,61.5,50.0,29.68,West,271,2.0,3.0,66,0.00,,,0.00,Wunderground v.1.15,2013-09-09 10:49:00,
2013-09-09 04:54:00,61.5,50.0,29.68,West,271,0.0,2.0,66,0.00,,,0.00,Wunderground v.1.15,2013-09-09 10:54:00,
2013-09-09 04:59:00,61.3,49.8,29.68,West,271,0.0,2.0,66,0.00,,,0.00,Wunderground v.1.15,2013-09-09 10:59:00,
2013-09-09 05:04:00,61.8,49.9,29.68,West,271,0.0,0.0,65,0.00,,,0.00,Wunderground v.1.15,2013-09-09 11:04:00,
2013-09-09 05:09:00,62.4,50.1,29.68,West,271,0.0,1.0,64,0.00,,,0.00,Wunderground v.1.15,2013-09-09 11:09:00,
2013-09-09 05:14:00,62.4,49.6,29.68,West,271,1.0,2.0,63,0.00,,,0.00,Wunderground v.1.15,2013-09-09 11:14:00,
2013-09-09 05:19:00,62.4,49.6,29.70,West,271,0.0,2.0,63,0.00,,,0.00,Wunderground v.1.15,2013-09-09 11:19:00,
2013-09-09 05:24:00,62.1,49.4,29.70,West,271,0.0,0.0,63,0.00,,,0.00,Wunderground v.1.15,2013-09-09 11:24:00,
2013-09-09 05:29:00,62.0,49.3,29.70,West,271,2.0,3.0,63,0.00,,,0.00,Wunderground v.1.15,2013-09-09 11:29:00,
2013-09-09 05:34:00,61.6,49.3,29.70,West,271,0.0,3.0,64,0.00,,,0.00,Wunderground v.1.15,2013-09-09 11:34:00,
2013-09-09 05:39:00,61.3,49.4,29.70,West,271,0.0,3.0,65,0.00,,,0.00,Wunderground v.1.15,2013-09-09 11:39:00,
2013-09-09 05:44:00,61.3,49.4,29.70,West,271,0.0,0.0,65,0.00,,,0.00,Wunderground v.1.15,2013-09-09 11:44:00,
2013-09-09 05:49:00,62.4,49.6,29.70,West,271,4.0,4.0,63,0.00,,,0.00,Wunderground v.1.15,2013-09-09 11:49:00,
2013-09-09 05:55:00,64.0,49.4,29.70,West,271,2.0,4.0,59,0.00,,,0.00,Wunderground v.1.15,2013-09-09 11:55:00,
2013-09-09 06:00:00,64.7,50.0,29.70,West,271,2.0,3.0,59,0.00,,,0.00,Wunderground v.1.15,2013-09-09 12:00:00,
2013-09-09 06:05:00,65.0,49.9,29.68,West,271,2.0,4.0,58,0.00,,,0.00,Wunderground v.1.15,2013-09-09 12:05:00,
2013-09-09 06:10:00,65.2,50.0,29.68,West,271,2.0,3.0,58,0.00,,,0.00,Wunderground v.1.15,2013-09-09 12:10:00,
2013-09-09 06:15:00,65.2,50.0,29.68,West,271,2.0,6.0,58,0.00,,,0.00,Wunderground v.1.15,2013-09-09 12:15:00,
2013-09-09 06:20:00,65.0,49.9,29.70,West,271,3.0,3.0,58,0.00,,,0.00,Wunderground v.1.15,2013-09-09 12:20:00,
2013-09-09 06:25:00,64.8,50.1,29.70,West,271,0.0,5.0,59,0.00,,,0.00,Wunderground v.1.15,2013-09-09 12:25:00,
2013-09-09 06:30:00,64.5,50.7,29.70,West,270,3.0,4.0,61,0.00,,,0.00,Wunderground v.1.15,2013-09-09 12:30:00,
2013-09-09 06:35:00,64.0,50.7,29.70,West,270,0.0,4.0,62,0.00,,,0.00,Wunderground v.1.15,2013-09-09 12:35:00,
2013-09-09 06:40:00,63.7,50.4,29.70,West,270,0.0,1.0,62,0.00,,,0.00,Wunderground v.1.15,2013-09-09 12:40:00,
2013-09-09 06:45:00,63.5,50.2,29.70,West,270,0.0,1.0,62,0.00,,,0.00,Wunderground v.1.15,2013-09-09 12:45:00,
2013-09-09 06:50:00,62.9,50.1,29.72,West,270,0.0,0.0,63,0.00,,,0.00,Wunderground v.1.15,2013-09-09 12:50:00,
2013-09-09 06:55:00,62.3,50.0,29.72,West,270,0.0,0.0,64,0.00,,,0.00,Wunderground v.1.15,2013-09-09 12:55:00,
2013-09-09 07:00:00,61.8,49.9,29.72,West,270,0.0,0.0,65,0.00,,,0.00,Wunderground v.1.15,2013-09-09 13:00:00,
2013-09-09 07:05:00,62.0,50.1,29.72,West,270,0.0,0.0,65,0.00,,,0.00,Wunderground v.1.15,2013-09-09 13:05:00,
2013-09-09 07:10:00,62.1,50.6,29.72,West,270,0.0,0.0,66,0.00,,,0.00,Wunderground v.1.15,2013-09-09 13:10:00,
2013-09-09 07:15:00,62.4,50.5,29.72,West,270,0.0,1.0,65,0.00,,,0.00,Wunderground v.1.15,2013-09-09 13:15:00,
2013-09-09 07:20:00,62.6,50.7,29.73,West,270,0.0,0.0,65,0.00,,,0.00,Wunderground v.1.15,2013-09-09 13:20:00,
2013-09-09 07:25:00,63.1,51.6,29.73,West,270,0.0,0.0,66,0.00,,,0.00,Wunderground v.1.15,2013-09-09 13:25:00,
2013-09-09 07:30:00,63.7,51.3,29.73,West,270,2.0,2.0,64,0.00,,,0.00,Wunderground v.1.15,2013-09-09 13:30:00,
2013-09-09 07:35:00,63.9,50.6,29.73,West,270,0.0,3.0,62,0.00,,,0.00,Wunderground v.1.15,2013-09-09 13:35:00,
2013-09-09 07:40:00,63.7,51.3,29.73,West,270,2.0,2.0,64,0.00,,,0.00,Wunderground v.1.15,2013-09-09 13:40:00,
2013-09-09 07:45:00,64.0,51.6,29.73,West,270,1.0,4.0,64,0.00,,,0.00,Wunderground v.1.15,2013-09-09 13:45:00,
2013-09-09 07:50:00,64.7,51.8,29.72,West,270,2.0,2.0,63,0.00,,,0.00,Wunderground v.1.15,2013-09-09 13:50:00,
2013-09-09 07:55:00,65.6,51.8,29.72,West,270,0.0,2.0,61,0.00,,,0.00,Wunderground v.1.15,2013-09-09 13:55:00,
2013-09-09 08:00:00,66.6,52.3,29.72,West,270,2.0,2.0,60,0.00,,,0.00,Wunderground v.1.15,2013-09-09 14:00:00,
2013-09-09 08:05:00,67.8,52.0,29.71,West,270,0.0,6.0,57,0.00,,,0.00,Wunderground v.1.15,2013-09-09 14:05:00,
2013-09-09 08:10:00,68.4,52.1,29.71,West,269,5.0,5.0,56,0.00,,,0.00,Wunderground v.1.15,2013-09-09 14:10:00,
2013-09-09 08:15:00,69.1,52.2,29.71,SW,221,4.0,7.0,55,0.00,,,0.00,Wunderground v.1.15,2013-09-09 14:15:00,
2013-09-09 08:20:00,69.8,52.4,29.73,SSW,207,0.0,3.0,54,0.00,,,0.00,Wunderground v.1.15,2013-09-09 14:20:00,
2013-09-09 08:25:00,70.1,52.2,29.73,SSW,206,0.0,3.0,53,0.00,,,0.00,Wunderground v.1.15,2013-09-09 14:25:00,
2013-09-09 08:30:00,70.3,52.4,29.73,SE,146,1.0,6.0,53,0.00,,,0.00,Wunderground v.1.15,2013-09-09 14:30:00,
2013-09-09 08:35:00,70.3,52.4,29.72,SE,127,4.0,9.0,53,0.00,,,0.00,Wunderground v.1.15,2013-09-09 14:35:00,
2013-09-09 08:40:00,70.4,53.0,29.72,ESE,123,3.0,7.0,54,0.00,,,0.00,Wunderground v.1.15,2013-09-09 14:40:00,
2013-09-09 08:45:00,70.8,52.8,29.72,SE,128,0.0,7.0,53,0.00,,,0.00,Wunderground v.1.15,2013-09-09 14:45:00,
2013-09-09 08:50:00,70.8,52.8,29.72,SE,128,3.0,3.0,53,0.00,,,0.00,Wunderground v.1.15,2013-09-09 14:50:00,
2013-09-09 08:55:00,71.3,53.3,29.72,SE,133,4.0,9.0,53,0.00,,,0.00,Wunderground v.1.15,2013-09-09 14:55:00,
2013-09-09 09:00:00,71.6,53.0,29.72,ESE,117,6.0,6.0,52,0.00,,,0.00,Wunderground v.1.15,2013-09-09 15:00:00,
2013-09-09 09:05:00,72.3,52.1,29.71,ESE,119,4.0,7.0,49,0.00,,,0.00,Wunderground v.1.15,2013-09-09 15:05:00,
2013-09-09 09:11:00,72.3,52.1,29.71,SE,128,5.0,7.0,49,0.00,,,0.00,Wunderground v.1.15,2013-09-09 15:11:00,
2013-09-09 09:16:00,73.0,53.3,29.71,SE,132,2.0,7.0,50,0.00,,,0.00,Wunderground v.1.15,2013-09-09 15:16:00,
2013-09-09 09:21:00,73.3,52.4,29.73,SE,132,3.0,3.0,48,0.00,,,0.00,Wunderground v.1.15,2013-09-09 15:21:00,
2013-09-09 09:26:00,73.2,54.5,29.73,SE,130,4.0,10.0,52,0.00,,,0.00,Wunderground v.1.15,2013-09-09 15:26:00,
2013-09-09 09:31:00,73.5,52.6,29.73,SE,137,5.0,6.0,48,0.00,,,0.00,Wunderground v.1.15,2013-09-09 15:31:00,
2013-09-09 09:36:00,74.0,53.1,29.72,SE,126,2.0,7.0,48,0.00,,,0.00,Wunderground v.1.15,2013-09-09 15:36:00,
2013-09-09 09:41:00,74.4,52.9,29.72,SE,131,2.0,6.0,47,0.00,,,0.00,Wunderground v.1.15,2013-09-09 15:41:00,
2013-09-09 09:46:00,75.1,53.5,29.72,SE,145,5.0,7.0,47,0.00,,,0.00,Wunderground v.1.15,2013-09-09 15:46:00,
2013-09-09 09:51:00,75.4,54.3,29.72,SE,132,4.0,7.0,48,0.00,,,0.00,Wunderground v.1.15,2013-09-09 15:51:00,
2013-09-09 09:56:00,75.4,52.6,29.72,SE,128,4.0,11.0,45,0.00,,,0.00,Wunderground v.1.15,2013-09-09 15:56:00,
2013-09-09 10:01:00,75.6,53.9,29.72,SE,128,1.0,3.0,47,0.00,,,0.00,Wunderground v.1.15,2013-09-09 16:01:00,
2013-09-09 10:06:00,75.6,53.4,29.71,SE,128,2.0,11.0,46,0.00,,,0.00,Wunderground v.1.15,2013-09-09 16:06:00,
2013-09-09 10:11:00,75.6,52.8,29.71,SE,124,1.0,4.0,45,0.00,,,0.00,Wunderground v.1.15,2013-09-09 16:11:00,
2013-09-09 10:16:00,75.4,53.2,29.71,SE,127,7.0,7.0,46,0.00,,,0.00,Wunderground v.1.15,2013-09-09 16:16:00,
2013-09-09 10:21:00,76.0,53.1,29.73,SSE,161,2.0,6.0,45,0.00,,,0.00,Wunderground v.1.15,2013-09-09 16:21:00,
2013-09-09 10:26:00,76.5,53.0,29.73,SE,137,4.0,7.0,44,0.00,,,0.00,Wunderground v.1.15,2013-09-09 16:26:00,
2013-09-09 10:32:00,76.3,52.8,29.73,ESE,123,3.0,12.0,44,0.00,,,0.00,Wunderground v.1.15,2013-09-09 16:32:00,
2013-09-09 10:37:00,75.6,53.4,29.73,ESE,123,4.0,12.0,46,0.00,,,0.00,Wunderground v.1.15,2013-09-09 16:37:00,
2013-09-09 10:42:00,75.6,52.8,29.73,SE,138,3.0,6.0,45,0.00,,,0.00,Wunderground v.1.15,2013-09-09 16:42:00,
2013-09-09 10:47:00,76.3,53.4,29.73,SE,126,2.0,7.0,45,0.00,,,0.00,Wunderground v.1.15,2013-09-09 16:47:00,
2013-09-09 10:52:00,77.4,53.1,29.72,ESE,117,2.0,7.0,43,0.00,,,0.00,Wunderground v.1.15,2013-09-09 16:52:00,
2013-09-09 10:57:00,77.2,52.3,29.72,ESE,119,6.0,12.0,42,0.00,,,0.00,Wunderground v.1.15,2013-09-09 16:57:00,
2013-09-09 11:02:00,76.8,52.6,29.72,SE,128,4.0,8.0,43,0.00,,,0.00,Wunderground v.1.15,2013-09-09 17:02:00,
2013-09-09 11:07:00,77.6,52.7,29.70,ESE,123,2.0,12.0,42,0.00,,,0.00,Wunderground v.1.15,2013-09-09 17:07:00,
2013-09-09 11:12:00,77.4,53.8,29.70,SE,130,6.0,10.0,44,0.00,,,0.00,Wunderground v.1.15,2013-09-09 17:12:00,
2013-09-09 11:17:00,78.6,52.9,29.70,SE,142,0.0,10.0,41,0.00,,,0.00,Wunderground v.1.15,2013-09-09 17:17:00,
2013-09-09 11:22:00,79.0,53.3,29.69,SE,135,6.0,11.0,41,0.00,,,0.00,Wunderground v.1.15,2013-09-09 17:22:00,
2013-09-09 11:27:00,79.2,54.1,29.69,ESE,123,4.0,11.0,42,0.00,,,0.00,Wunderground v.1.15,2013-09-09 17:27:00,
2013-09-09 11:32:00,79.6,53.1,29.68,South,176,3.0,9.0,40,0.00,,,0.00,Wunderground v.1.15,2013-09-09 17:32:00,
2013-09-09 11:37:00,79.2,52.1,29.68,East,99,1.0,11.0,39,0.00,,,0.00,Wunderground v.1.15,2013-09-09 17:37:00,
2013-09-09 11:42:00,79.6,53.1,29.68,SE,138,3.0,11.0,40,0.00,,,0.00,Wunderground v.1.15,2013-09-09 17:42:00,
2013-09-09 11:47:00,79.4,54.3,29.69,ENE,69,4.0,11.0,42,0.00,,,0.00,Wunderground v.1.15,2013-09-09 17:47:00,
2013-09-09 11:52:00,80.1,54.9,29.69,SSW,203,2.0,5.0,42,0.00,,,0.00,Wunderground v.1.15,2013-09-09 17:52:00,
2013-09-09 11:57:00,80.2,54.4,29.69,ENE,70,7.0,7.0,41,0.00,,,0.00,Wunderground v.1.15,2013-09-09 17:57:00,
2013-09-09 12:02:00,79.2,51.4,29.69,ESE,122,5.0,14.0,38,0.00,,,0.00,Wunderground v.1.15,2013-09-09 18:02:00,
2013-09-09 12:08:00,78.5,52.2,29.69,SE,130,4.0,14.0,40,0.00,,,0.00,Wunderground v.1.15,2013-09-09 18:08:00,
2013-09-09 12:13:00,79.6,51.8,29.69,ESE,119,6.0,6.0,38,0.00,,,0.00,Wunderground v.1.15,2013-09-09 18:13:00,
2013-09-09 12:18:00,79.8,51.2,29.68,SE,139,2.0,12.0,37,0.00,,,0.00,Wunderground v.1.15,2013-09-09 18:18:00,
2013-09-09 12:23:00,79.9,52.0,29.68,SE,134,4.0,11.0,38,0.00,,,0.00,Wunderground v.1.15,2013-09-09 18:23:00,
2013-09-09 12:28:00,79.8,52.6,29.68,SE,138,4.0,12.0,39,0.00,,,0.00,Wunderground v.1.15,2013-09-09 18:28:00,
2013-09-09 12:34:00,80.5,51.8,29.67,SE,135,3.0,9.0,37,0.00,,,0.00,Wunderground v.1.15,2013-09-09 18:34:00,
2013-09-09 12:39:00,80.3,51.7,29.67,SE,126,3.0,12.0,37,0.00,,,0.00,Wunderground v.1.15,2013-09-09 18:39:00,
2013-09-09 12:44:00,80.9,52.2,29.67,SE,124,2.0,11.0,37,0.00,,,0.00,Wunderground v.1.15,2013-09-09 18:44:00,
2013-09-09 12:49:00,81.8,53.0,29.66,SSE,152,4.0,16.0,37,0.00,,,0.00,Wunderground v.1.15,2013-09-09 18:49:00,
2013-09-09 12:54:00,82.2,53.3,29.66,SSW,203,11.0,12.0,37,0.00,,,0.00,Wunderground v.1.15,2013-09-09 18:54:00,
2013-09-09 12:59:00,83.0,51.7,29.66,South,186,4.0,12.0,34,0.00,,,0.00,Wunderground v.1.15,2013-09-09 18:59:00,
2013-09-09 13:04:00,81.8,49.9,29.67,SE,132,4.0,12.0,33,0.00,,,0.00,Wunderground v.1.15,2013-09-09 19:04:00,
2013-09-09 13:09:00,81.4,50.3,29.67,SE,128,5.0,13.0,34,0.00,,,0.00,Wunderground v.1.15,2013-09-09 19:09:00,
2013-09-09 13:14:00,81.8,50.7,29.67,SSW,209,5.0,11.0,34,0.00,,,0.00,Wunderground v.1.15,2013-09-09 19:14:00,
2013-09-09 13:19:00,80.5,51.8,29.67,SE,137,7.0,13.0,37,0.00,,,0.00,Wunderground v.1.15,2013-09-09 19:19:00,
2013-09-09 13:24:00,80.3,50.1,29.67,SE,126,5.0,14.0,35,0.00,,,0.00,Wunderground v.1.15,2013-09-09 19:24:00,
2013-09-09 13:29:00,81.4,50.3,29.67,SSE,164,4.0,14.0,34,0.00,,,0.00,Wunderground v.1.15,2013-09-09 19:29:00,
2013-09-09 13:34:00,81.6,52.8,29.66,SE,126,10.0,14.0,37,0.00,,,0.00,Wunderground v.1.15,2013-09-09 19:34:00,
2013-09-09 13:39:00,82.4,50.4,29.66,SE,129,5.0,14.0,33,0.00,,,0.00,Wunderground v.1.15,2013-09-09 19:39:00,
2013-09-09 13:44:00,81.4,51.1,29.66,ESE,121,3.0,9.0,35,0.00,,,0.00,Wunderground v.1.15,2013-09-09 19:44:00,
2013-09-09 13:49:00,80.5,53.3,29.66,ESE,123,6.0,13.0,39,0.00,,,0.00,Wunderground v.1.15,2013-09-09 19:49:00,
2013-09-09 13:54:00,79.9,52.0,29.66,SE,135,5.0,12.0,38,0.00,,,0.00,Wunderground v.1.15,2013-09-09 19:54:00,
2013-09-09 13:59:00,79.6,51.0,29.66,SE,132,9.0,12.0,37,0.00,,,0.00,Wunderground v.1.15,2013-09-09 19:59:00,
2013-09-09 14:04:00,80.5,50.3,29.65,ESE,116,10.0,13.0,35,0.00,,,0.00,Wunderground v.1.15,2013-09-09 20:04:00,
2013-09-09 14:09:00,80.9,49.9,29.65,SE,124,3.0,13.0,34,0.00,,,0.00,Wunderground v.1.15,2013-09-09 20:09:00,
2013-09-09 14:14:00,80.1,50.0,29.65,SE,139,4.0,15.0,35,0.00,,,0.00,Wunderground v.1.15,2013-09-09 20:14:00,
2013-09-09 14:19:00,79.6,49.5,29.65,SE,129,0.0,15.0,35,0.00,,,0.00,Wunderground v.1.15,2013-09-09 20:19:00,
2013-09-09 14:24:00,79.4,49.4,29.65,SE,132,7.0,10.0,35,0.00,,,0.00,Wunderground v.1.15,2013-09-09 20:24:00,
2013-09-09 14:29:00,78.8,50.3,29.65,SSE,163,9.0,13.0,37,0.00,,,0.00,Wunderground v.1.15,2013-09-09 20:29:00,
2013-09-09 14:34:00,78.5,50.1,29.67,SE,131,3.0,11.0,37,0.00,,,0.00,Wunderground v.1.15,2013-09-09 20:34:00,
2013-09-09 14:39:00,78.1,50.4,29.67,SE,131,2.0,11.0,38,0.00,,,0.00,Wunderground v.1.15,2013-09-09 20:39:00,
2013-09-09 14:44:00,78.1,51.1,29.67,ESE,121,5.0,11.0,39,0.00,,,0.00,Wunderground v.1.15,2013-09-09 20:44:00,
2013-09-09 14:49:00,77.9,51.6,29.67,SE,128,2.0,11.0,40,0.00,,,0.00,Wunderground v.1.15,2013-09-09 20:49:00,
2013-09-09 14:54:00,77.7,51.5,29.67,SE,128,5.0,6.0,40,0.00,,,0.00,Wunderground v.1.15,2013-09-09 20:54:00,
2013-09-09 14:59:00,77.4,51.9,29.67,SE,124,0.0,9.0,41,0.00,,,0.00,Wunderground v.1.15,2013-09-09 20:59:00,
2013-09-09 15:04:00,76.5,54.8,29.68,SE,124,0.0,2.0,47,0.00,,,0.00,Wunderground v.1.15,2013-09-09 21:04:00,
2013-09-09 15:09:00,75.3,56.5,29.68,West,279,7.0,11.0,52,0.00,,,0.00,Wunderground v.1.15,2013-09-09 21:09:00,
2013-09-09 15:14:00,72.7,57.5,29.68,WSW,247,2.0,12.0,59,0.00,,,0.00,Wunderground v.1.15,2013-09-09 21:14:00,
2013-09-09 15:19:00,70.4,58.5,29.74,SSW,210,7.0,12.0,66,0.00,,,0.01,Wunderground v.1.15,2013-09-09 21:19:00,
2013-09-09 15:24:00,68.4,57.4,29.74,SSW,192,11.0,13.0,68,0.00,,,0.01,Wunderground v.1.15,2013-09-09 21:24:00,
2013-09-09 15:29:00,66.8,57.1,29.74,ESE,123,5.0,13.0,71,0.06,,,0.02,Wunderground v.1.15,2013-09-09 21:29:00,
2013-09-09 15:34:00,65.8,56.1,29.77,SE,136,0.0,9.0,71,0.06,,,0.02,Wunderground v.1.15,2013-09-09 21:34:00,
2013-09-09 15:39:00,65.2,57.1,29.77,SE,137,0.0,9.0,75,0.05,,,0.03,Wunderground v.1.15,2013-09-09 21:39:00,
2013-09-09 15:44:00,65.0,58.3,29.77,SE,137,0.0,2.0,79,0.05,,,0.03,Wunderground v.1.15,2013-09-09 21:44:00,
2013-09-09 15:49:00,65.0,58.3,29.79,NNE,20,5.0,8.0,79,0.05,,,0.03,Wunderground v.1.15,2013-09-09 21:49:00,
2013-09-09 15:54:00,65.0,57.6,29.79,North,5,8.0,12.0,77,0.00,,,0.03,Wunderground v.1.15,2013-09-09 21:54:00,
2013-09-09 16:00:00,65.6,58.2,29.79,North,355,18.0,18.0,77,0.00,,,0.03,Wunderground v.1.15,2013-09-09 22:00:00,
2013-09-09 16:05:00,65.8,58.0,29.79,North,9,9.0,18.0,76,0.00,,,0.03,Wunderground v.1.15,2013-09-09 22:05:00,
2013-09-09 16:10:00,66.0,57.8,29.79,North,350,10.0,12.0,75,0.00,,,0.03,Wunderground v.1.15,2013-09-09 22:10:00,
2013-09-09 16:15:00,65.8,56.5,29.79,North,5,11.0,17.0,72,0.00,,,0.03,Wunderground v.1.15,2013-09-09 22:15:00,
2013-09-09 16:20:00,65.5,54.7,29.81,North,360,9.0,13.0,68,0.00,,,0.03,Wunderground v.1.15,2013-09-09 22:20:00,
2013-09-09 16:25:00,65.2,53.6,29.81,North,350,12.0,15.0,66,0.00,,,0.03,Wunderground v.1.15,2013-09-09 22:25:00,
2013-09-09 16:30:00,64.8,53.6,29.81,North,5,14.0,15.0,67,0.00,,,0.03,Wunderground v.1.15,2013-09-09 22:30:00,
2013-09-09 16:35:00,64.5,53.3,29.81,North,5,9.0,22.0,67,0.00,,,0.03,Wunderground v.1.15,2013-09-09 22:35:00,
2013-09-09 16:40:00,64.3,52.7,29.81,NNE,13,20.0,20.0,66,0.00,,,0.03,Wunderground v.1.15,2013-09-09 22:40:00,
2013-09-09 16:45:00,64.3,52.7,29.81,NNW,346,6.0,20.0,66,0.00,,,0.03,Wunderground v.1.15,2013-09-09 22:45:00,
2013-09-09 16:50:00,64.2,53.0,29.81,North,355,11.0,13.0,67,0.00,,,0.03,Wunderground v.1.15,2013-09-09 22:50:00,
2013-09-09 16:55:00,64.0,52.8,29.81,North,9,10.0,15.0,67,0.00,,,0.03,Wunderground v.1.15,2013-09-09 22:55:00,
2013-09-09 17:00:00,64.0,53.2,29.81,North,360,6.0,9.0,68,0.00,,,0.03,Wunderground v.1.15,2013-09-09 23:00:00,
2013-09-09 17:05:00,63.9,53.5,29.83,NNW,348,16.0,16.0,69,0.00,,,0.03,Wunderground v.1.15,2013-09-09 23:05:00,
2013-09-09 17:10:00,63.2,53.6,29.83,North,5,4.0,9.0,71,0.00,,,0.04,Wunderground v.1.15,2013-09-09 23:10:00,
2013-09-09 17:15:00,62.4,54.0,29.83,NNW,345,10.0,14.0,74,0.00,,,0.04,Wunderground v.1.15,2013-09-09 23:15:00,
2013-09-09 17:20:00,61.8,54.2,29.83,NNW,347,10.0,12.0,76,0.00,,,0.04,Wunderground v.1.15,2013-09-09 23:20:00,
2013-09-09 17:25:00,61.3,54.4,29.83,North,350,6.0,15.0,78,0.05,,,0.05,Wunderground v.1.15,2013-09-09 23:25:00,
2013-09-09 17:30:00,60.9,54.3,29.83,North,355,6.0,12.0,79,0.10,,,0.06,Wunderground v.1.15,2013-09-09 23:30:00,
2013-09-09 17:35:00,60.7,54.5,29.83,NNW,344,15.0,15.0,80,0.09,,,0.06,Wunderground v.1.15,2013-09-09 23:35:00,
2013-09-09 17:40:00,60.5,54.6,29.83,North,351,6.0,10.0,81,0.06,,,0.07,Wunderground v.1.15,2013-09-09 23:40:00,
2013-09-09 17:45:00,60.4,54.9,29.83,NNW,346,6.0,13.0,82,0.06,,,0.07,Wunderground v.1.15,2013-09-09 23:45:00,
2013-09-09 17:50:00,60.2,55.0,29.83,NNW,346,3.0,8.0,83,0.07,,,0.08,Wunderground v.1.15,2013-09-09 23:50:00,
2013-09-09 17:55:00,60.2,55.3,29.83,NNW,346,4.0,9.0,84,0.07,,,0.08,Wunderground v.1.15,2013-09-09 23:55:00,
2013-09-09 18:00:00,60.4,55.9,29.83,NNW,346,2.0,3.0,85,0.55,,,0.09,Wunderground v.1.15,2013-09-10 00:00:00,
2013-09-09 18:05:00,60.2,56.0,29.84,NNW,346,3.0,5.0,86,0.28,,,0.12,Wunderground v.1.15,2013-09-10 00:05:00,
2013-09-09 18:10:00,60.2,56.0,29.84,NNW,346,3.0,4.0,86,0.10,,,0.13,Wunderground v.1.15,2013-09-10 00:10:00,
2013-09-09 18:15:00,60.1,55.9,29.84,NNW,347,1.0,7.0,86,0.09,,,0.13,Wunderground v.1.15,2013-09-10 00:15:00,
2013-09-09 18:20:00,60.1,56.2,29.86,NNW,347,0.0,3.0,87,0.05,,,0.13,Wunderground v.1.15,2013-09-10 00:20:00,
2013-09-09 18:25:00,60.1,56.2,29.86,NNW,347,2.0,3.0,87,0.04,,,0.13,Wunderground v.1.15,2013-09-10 00:25:00,
2013-09-09 18:30:00,60.4,56.8,29.86,NNW,347,3.0,4.0,88,0.00,,,0.13,Wunderground v.1.15,2013-09-10 00:30:00,
2013-09-09 18:35:00,60.4,56.8,29.86,NNW,347,3.0,6.0,88,0.00,,,0.14,Wunderground v.1.15,2013-09-10 00:35:00,
2013-09-09 18:40:00,60.4,57.1,29.86,NNW,347,5.0,6.0,89,0.00,,,0.14,Wunderground v.1.15,2013-09-10 00:40:00,
2013-09-09 18:45:00,60.4,57.1,29.86,NNW,347,4.0,6.0,89,0.00,,,0.14,Wunderground v.1.15,2013-09-10 00:45:00,
2013-09-09 18:50:00,60.4,57.1,29.86,NNW,347,5.0,6.0,89,0.00,,,0.14,Wunderground v.1.15,2013-09-10 00:50:00,
2013-09-09 18:56:00,60.4,57.5,29.86,NNW,347,3.0,6.0,90,0.00,,,0.14,Wunderground v.1.15,2013-09-10 00:56:00,
2013-09-09 19:01:00,60.5,57.6,29.86,NNW,347,5.0,5.0,90,0.00,,,0.14,Wunderground v.1.15,2013-09-10 01:01:00,
2013-09-09 19:06:00,60.7,57.7,29.86,NNW,347,2.0,5.0,90,0.00,,,0.14,Wunderground v.1.15,2013-09-10 01:06:00,
2013-09-09 19:11:00,60.7,57.7,29.86,NNW,347,3.0,4.0,90,0.00,,,0.14,Wunderground v.1.15,2013-09-10 01:11:00,
2013-09-09 19:16:00,60.5,57.9,29.86,NNW,347,2.0,4.0,91,0.00,,,0.14,Wunderground v.1.15,2013-09-10 01:16:00,
2013-09-09 19:21:00,60.5,57.9,29.84,NNW,347,3.0,3.0,91,0.00,,,0.14,Wunderground v.1.15,2013-09-10 01:21:00,
2013-09-09 19:26:00,60.4,57.5,29.84,NNW,347,4.0,5.0,90,0.00,,,0.14,Wunderground v.1.15,2013-09-10 01:26:00,
2013-09-09 19:31:00,60.2,57.3,29.84,NNW,347,4.0,5.0,90,0.00,,,0.14,Wunderground v.1.15,2013-09-10 01:31:00,
2013-09-09 19:36:00,60.2,57.3,29.84,NNW,347,3.0,6.0,90,0.00,,,0.14,Wunderground v.1.15,2013-09-10 01:36:00,
2013-09-09 19:41:00,60.1,57.2,29.84,NNW,347,3.0,4.0,90,0.00,,,0.14,Wunderground v.1.15,2013-09-10 01:41:00,
2013-09-09 19:46:00,59.9,57.0,29.84,NNW,347,3.0,5.0,90,0.00,,,0.14,Wunderground v.1.15,2013-09-10 01:46:00,
2013-09-09 19:51:00,59.9,57.3,29.84,NNW,347,3.0,5.0,91,0.00,,,0.14,Wunderground v.1.15,2013-09-10 01:51:00,
2013-09-09 19:56:00,59.9,57.3,29.84,NNW,347,3.0,5.0,91,0.00,,,0.14,Wunderground v.1.15,2013-09-10 01:56:00,
2013-09-09 20:01:00,59.9,57.3,29.84,NNW,347,4.0,5.0,91,0.00,,,0.14,Wunderground v.1.15,2013-09-10 02:01:00,
2013-09-09 20:06:00,59.8,56.9,29.85,NNW,347,2.0,5.0,90,0.00,,,0.14,Wunderground v.1.15,2013-09-10 02:06:00,
2013-09-09 20:11:00,59.8,56.9,29.85,NNW,347,0.0,3.0,90,0.00,,,0.14,Wunderground v.1.15,2013-09-10 02:11:00,
2013-09-09 20:16:00,59.6,56.7,29.85,NNW,347,0.0,3.0,90,0.00,,,0.14,Wunderground v.1.15,2013-09-10 02:16:00,
2013-09-09 20:21:00,59.6,56.7,29.83,NNW,347,0.0,1.0,90,0.00,,,0.14,Wunderground v.1.15,2013-09-10 02:21:00,
2013-09-09 20:26:00,59.6,56.7,29.83,NNW,347,1.0,3.0,90,0.00,,,0.14,Wunderground v.1.15,2013-09-10 02:26:00,
2013-09-09 20:31:00,59.6,56.4,29.83,NNW,347,0.0,0.0,89,0.00,,,0.14,Wunderground v.1.15,2013-09-10 02:31:00,
2013-09-09 20:36:00,59.8,56.6,29.86,NNW,347,0.0,1.0,89,0.00,,,0.15,Wunderground v.1.15,2013-09-10 02:36:00,
2013-09-09 20:41:00,59.9,56.3,29.86,NNW,347,0.0,0.0,88,0.00,,,0.15,Wunderground v.1.15,2013-09-10 02:41:00,
2013-09-09 20:46:00,59.9,56.3,29.86,NNW,347,0.0,0.0,88,0.07,,,0.16,Wunderground v.1.15,2013-09-10 02:46:00,
2013-09-09 20:51:00,60.1,56.5,29.86,NNW,347,0.0,0.0,88,0.09,,,0.17,Wunderground v.1.15,2013-09-10 02:51:00,
2013-09-09 20:56:00,60.1,56.5,29.86,NNW,347,0.0,0.0,88,0.39,,,0.20,Wunderground v.1.15,2013-09-10 02:56:00,
2013-09-09 21:01:00,60.1,56.5,29.86,NNW,347,0.0,0.0,88,0.33,,,0.22,Wunderground v.1.15,2013-09-10 03:01:00,
2013-09-09 21:06:00,60.1,56.8,29.86,NNW,347,2.0,3.0,89,0.29,,,0.25,Wunderground v.1.15,2013-09-10 03:06:00,
2013-09-09 21:11:00,59.9,56.6,29.86,NNW,347,2.0,3.0,89,0.27,,,0.27,Wunderground v.1.15,2013-09-10 03:11:00,
2013-09-09 21:16:00,59.8,56.6,29.86,NNW,347,2.0,3.0,89,0.27,,,0.29,Wunderground v.1.15,2013-09-10 03:16:00,
2013-09-09 21:22:00,59.8,56.6,29.83,NNW,347,4.0,4.0,89,0.14,,,0.30,Wunderground v.1.15,2013-09-10 03:22:00,
2013-09-09 21:27:00,59.6,56.7,29.83,NNW,347,0.0,4.0,90,0.06,,,0.30,Wunderground v.1.15,2013-09-10 03:27:00,
2013-09-09 21:32:00,59.5,56.6,29.83,NNW,347,0.0,3.0,90,0.04,,,0.30,Wunderground v.1.15,2013-09-10 03:32:00,
2013-09-09 21:37:00,59.5,56.6,29.84,NNW,347,0.0,3.0,90,0.04,,,0.31,Wunderground v.1.15,2013-09-10 03:37:00,
2013-09-09 21:42:00,59.3,56.4,29.84,NNW,347,0.0,2.0,90,0.04,,,0.31,Wunderground v.1.15,2013-09-10 03:42:00,
2013-09-09 21:47:00,59.3,56.4,29.84,NNW,347,0.0,2.0,90,0.04,,,0.31,Wunderground v.1.15,2013-09-10 03:47:00,
2013-09-09 21:52:00,59.2,56.6,29.85,NNW,347,0.0,0.0,91,0.04,,,0.31,Wunderground v.1.15,2013-09-10 03:52:00,
2013-09-09 21:57:00,59.0,56.1,29.85,NNW,347,1.0,3.0,90,0.00,,,0.31,Wunderground v.1.15,2013-09-10 03:57:00,
2013-09-09 22:01:00,59.2,56.6,29.85,NNW,347,0.0,0.0,91,0.00,,,0.31,Wunderground v.1.15,2013-09-10 04:01:00,
2013-09-09 22:02:00,59.2,56.6,29.85,NNW,347,0.0,0.0,91,0.00,,,0.31,Wunderground v.1.15,2013-09-10 04:02:00,
2013-09-09 22:07:00,59.2,56.6,29.84,NNW,347,0.0,0.0,91,0.00,,,0.31,Wunderground v.1.15,2013-09-10 04:07:00,
2013-09-09 22:12:00,59.2,56.9,29.84,NNW,347,0.0,2.0,92,0.00,,,0.31,Wunderground v.1.15,2013-09-10 04:12:00,
2013-09-09 22:17:00,59.2,56.6,29.84,NNW,347,2.0,4.0,91,0.00,,,0.32,Wunderground v.1.15,2013-09-10 04:17:00,
2013-09-09 22:22:00,58.9,56.3,29.83,NNW,347,2.0,4.0,91,0.00,,,0.32,Wunderground v.1.15,2013-09-10 04:22:00,
2013-09-09 22:27:00,58.7,56.1,29.83,NNW,347,3.0,4.0,91,0.00,,,0.32,Wunderground v.1.15,2013-09-10 04:27:00,
2013-09-09 22:32:00,58.7,56.1,29.83,NNW,347,2.0,4.0,91,0.00,,,0.32,Wunderground v.1.15,2013-09-10 04:32:00,
2013-09-09 22:37:00,58.7,56.1,29.83,NNW,347,0.0,4.0,91,0.00,,,0.32,Wunderground v.1.15,2013-09-10 04:37:00,
2013-09-09 22:42:00,58.7,56.1,29.83,NNW,347,1.0,4.0,91,0.00,,,0.32,Wunderground v.1.15,2013-09-10 04:42:00,
2013-09-09 22:47:00,58.9,56.3,29.83,NNW,347,1.0,4.0,91,0.00,,,0.32,Wunderground v.1.15,2013-09-10 04:47:00,
2013-09-09 22:52:00,58.9,56.3,29.84,NNW,347,0.0,1.0,91,0.00,,,0.32,Wunderground v.1.15,2013-09-10 04:52:00,
2013-09-09 22:57:00,58.9,56.3,29.84,NNW,347,1.0,1.0,91,0.00,,,0.32,Wunderground v.1.15,2013-09-10 04:57:00,
2013-09-09 23:02:00,58.7,56.1,29.84,NNW,347,0.0,0.0,91,0.00,,,0.32,Wunderground v.1.15,2013-09-10 05:02:00,
2013-09-09 23:07:00,58.7,55.8,29.85,NNW,347,0.0,0.0,90,0.00,,,0.32,Wunderground v.1.15,2013-09-10 05:07:00,
2013-09-09 23:12:00,58.7,55.8,29.85,NNW,347,0.0,0.0,90,0.00,,,0.32,Wunderground v.1.15,2013-09-10 05:12:00,
2013-09-09 23:17:00,58.7,55.8,29.85,NNW,347,0.0,0.0,90,0.00,,,0.32,Wunderground v.1.15,2013-09-10 05:17:00,
2013-09-09 23:22:00,58.9,56.0,29.85,NNW,347,0.0,2.0,90,0.00,,,0.32,Wunderground v.1.15,2013-09-10 05:22:00,
2013-09-09 23:27:00,58.7,56.1,29.85,NNW,347,0.0,2.0,91,0.00,,,0.33,Wunderground v.1.15,2013-09-10 05:27:00,
2013-09-09 23:32:00,58.7,56.1,29.85,NNW,347,0.0,0.0,91,0.00,,,0.33,Wunderground v.1.15,2013-09-10 05:32:00,
2013-09-09 23:37:00,58.9,56.6,29.85,NNW,347,0.0,2.0,92,0.10,,,0.34,Wunderground v.1.15,2013-09-10 05:37:00,
2013-09-09 23:42:00,58.9,56.6,29.85,NNW,347,0.0,0.0,92,0.10,,,0.35,Wunderground v.1.15,2013-09-10 05:42:00,
2013-09-09 23:47:00,58.9,56.6,29.83,NNW,347,0.0,0.0,92,0.14,,,0.36,Wunderground v.1.15,2013-09-10 05:47:00,
2013-09-09 23:53:00,58.9,56.9,29.83,NNW,347,0.0,0.0,93,0.21,,,0.38,Wunderground v.1.15,2013-09-10 05:53:00,
2013-09-09 23:58:00,58.9,56.9,29.83,NNW,347,0.0,0.0,93,0.10,,,0.38,Wunderground v.1.15,2013-09-10 05:58:00,